^^
Soleil Laural Canyon Historical Data
 
Daily Summary for May 26, 2019 Units:  English    Metric   Both
Daily Weekly Monthly Yearly Custom
  Current: High: Low: Average:
Temperature: 68.7 °F 72.3 °F 68.2 °F 70.1 °F
Dew Point: 64.8 °F 66.4 °F 64.2 °F 65.5 °F
Humidity: 87% 89% 81% 85%
Wind Speed: 0mph 1.1mph 0mph 0.1mph
Wind Gust: 0mph 1.1mph - -
WindCalm - - East
Pressure: 30.17 in 30.19 in 30.17 in -
Precipitation: 0 in      
Historical Graphs
 
 
Tabular Data for May 26, 2019
Time Temperature Dew Point Pressure Wind Wind Speed Wind Gust Humidity Rainfall Rate (Hourly) solar
00:04 72.3 °F 66.2 °F 30.19 in Calm     81% 0 in 0.00 W/m2
00:09 72.3 °F 66.2 °F 30.18 in Calm     81% 0 in 0.00 W/m2
00:14 72.3 °F 66.2 °F 30.19 in Calm     81% 0 in 0.00 W/m2
00:19 72.1 °F 66.4 °F 30.19 in Calm     82% 0 in 0.00 W/m2
00:24 72 °F 66.2 °F 30.19 in Calm     82% 0 in 0.00 W/m2
00:29 71.6 °F 66.2 °F 30.19 in Calm     83% 0 in 0.00 W/m2
00:34 71.1 °F 66 °F 30.19 in Calm     84% 0 in 0.00 W/m2
00:39 70.9 °F 65.8 °F 30.19 in Calm     84% 0 in 0.00 W/m2
00:44 71.1 °F 66 °F 30.19 in Calm     84% 0 in 0.00 W/m2
00:49 70.9 °F 65.8 °F 30.19 in Calm     84% 0 in 0.00 W/m2
00:54 70.9 °F 66.2 °F 30.19 in Calm     85% 0 in 0.00 W/m2
00:59 70.7 °F 66 °F 30.19 in Calm     85% 0 in 0.00 W/m2
01:04 70.7 °F 66 °F 30.18 in Calm     85% 0 in 0.00 W/m2
01:09 70.7 °F 66 °F 30.19 in Calm     85% 0 in 0.00 W/m2
01:14 70.7 °F 66 °F 30.19 in Calm     85% 0 in 0.00 W/m2
01:19 70.7 °F 66 °F 30.19 in Calm     85% 0 in 0.00 W/m2
01:24 70.3 °F 65.7 °F 30.19 in Calm     85% 0 in 0.00 W/m2
01:29 70.2 °F 65.5 °F 30.19 in Calm     85% 0 in 0.00 W/m2
01:34 70.2 °F 65.5 °F 30.18 in Calm     85% 0 in 0.00 W/m2
01:39 70 °F 65.7 °F 30.18 in Calm     86% 0 in 0.00 W/m2
01:44 69.8 °F 65.5 °F 30.19 in Calm     86% 0 in 0.00 W/m2
01:49 69.4 °F 65.5 °F 30.19 in Calm     87% 0 in 0.00 W/m2
01:54 69.3 °F 65.3 °F 30.19 in Calm     87% 0 in 0.00 W/m2
01:59 69.4 °F 65.1 °F 30.19 in Calm     86% 0 in 0.00 W/m2
02:04 69.3 °F 65.3 °F 30.19 in Calm     87% 0 in 0.00 W/m2
02:09 68.9 °F 64.9 °F 30.18 in Calm     87% 0 in 0.00 W/m2
02:14 68.7 °F 64.9 °F 30.18 in Calm     88% 0 in 0.00 W/m2
02:19 68.5 °F 64.8 °F 30.18 in Calm     88% 0 in 0.00 W/m2
02:24 68.5 °F 64.8 °F 30.18 in East 0.9 mph 1.1 mph 88% 0 in 0.00 W/m2
02:29 68.4 °F 64.9 °F 30.17 in East 0.2 mph 1.1 mph 89% 0 in 0.00 W/m2
02:34 68.2 °F 64.8 °F 30.18 in East 0.2 mph 1.1 mph 89% 0 in 0.00 W/m2
02:39 68.4 °F 64.6 °F 30.17 in East 0.2 mph 1.1 mph 88% 0 in 0.00 W/m2
02:44 68.2 °F 64.4 °F 30.17 in East 0.2 mph 1.1 mph 88% 0 in 0.00 W/m2
02:49 68.2 °F 64.2 °F 30.17 in Calm     87% 0 in 0.00 W/m2
02:54 68.5 °F 64.6 °F 30.17 in East 1.1 mph 1.1 mph 87% 0 in 0.00 W/m2
02:59 68.7 °F 64.8 °F 30.17 in Calm     87% 0 in 0.00 W/m2
Soleil - Laurel Canyon
Compliments of Weather Underground - 2 mb